HUAL Seoul — LADO6 — position and weather

sailwx.info

Track history (hours):
 
Tides and Currents Weather Stations Pressure Air Temp Water Temp Dewpoint Dewpoint Depression Visibility Wind Speed Wind Dir Waves Ship Positions

HUAL Seoul

Last reported at 2015-Apr-20 19:28 UTC. Time now 2015-Apr-22 03:53 UTC.
Position N 33°31' E 124°01'.

Type: Cargo ship. MMSI: 257496000.

Date/timePositionNaut miles runAvg speedWind from/ knotsBaromVisibWave heightAir tempDewpointWater temp
2015-Apr-20 19:28N 33°31' E 124°01'61611.9
2015-Apr-18 15:33N 23°56' E 119°51'3816.0
2015-Apr-18 13:09N 23°17' E 119°50'1015.5
2015-Apr-18 12:32N 23°08' E 119°50'1515.2
2015-Apr-18 11:33N 22°53' E 119°50'1413.7
2015-Apr-18 10:34N 22°39' E 119°50'1312.7
2015-Apr-18 09:34N 22°27' E 119°45'1312.5
2015-Apr-18 08:33N 22°16' E 119°39'1413.4
2015-Apr-18 07:31N 22°04' E 119°32'  
2015-Apr-13 11:10N 01°42' E 104°40'812.7
2015-Apr-13 10:33N 01°35' E 104°38'1312.5
2015-Apr-13 09:33N 01°25' E 104°30'1312.6
2015-Apr-13 08:33N 01°17' E 104°20'1211.9
2015-Apr-13 07:33N 01°16' E 104°08'1211.5
2015-Apr-13 06:33N 01°15' E 103°57'3 2.8
2015-Apr-13 05:25N 01°17' E 103°54'0 0.0
2015-Apr-13 04:31N 01°17' E 103°54'0 0.0
2015-Apr-13 03:31N 01°17' E 103°54'0 0.1
2015-Apr-13 02:31N 01°17' E 103°54'0 0.0
2015-Apr-13 01:31N 01°17' E 103°54'0 0.0
2015-Apr-13 00:31N 01°17' E 103°54'0 0.0
2015-Apr-12 23:31N 01°17' E 103°54'0 0.1
2015-Apr-12 22:19N 01°17' E 103°54'0 0.0
2015-Apr-12 21:19N 01°17' E 103°54'0 0.0
2015-Apr-12 20:19N 01°17' E 103°54'0 0.0
2015-Apr-12 19:31N 01°17' E 103°54'0 0.0
2015-Apr-12 18:31N 01°17' E 103°54'0 0.0
2015-Apr-12 16:19N 01°17' E 103°54'0 0.0
2015-Apr-12 15:34N 01°17' E 103°54'1 0.8
2015-Apr-12 14:33N 01°16' E 103°54'7 6.6
2015-Apr-12 13:33N 01°13' E 103°48'5 4.4
2015-Apr-12 12:26N 01°17' E 103°45'0 0.0
2015-Apr-12 11:29N 01°17' E 103°45'0 0.0
2015-Apr-12 10:14N 01°17' E 103°45'0 0.0
2015-Apr-12 09:32N 01°17' E 103°45'0 0.0
2015-Apr-12 08:14N 01°17' E 103°45'0 0.0
2015-Apr-12 07:33N 01°17' E 103°45'2 2.4
2015-Apr-12 06:34N 01°15' E 103°46'10 9.3
2015-Apr-12 05:32N 01°13' E 103°36'67 6.7
2015-Apr-11 19:33N 01°43' E 102°36'1412.1
2015-Apr-11 18:23N 01°49' E 102°23'1512.6
2015-Apr-11 17:10N 01°57' E 102°10'813.0
2015-Apr-11 16:32N 02°03' E 102°04'  
Track history (hours):
 
Tides and Currents Weather Stations Pressure Air Temp Water Temp Dewpoint Dewpoint Depression Visibility Wind Speed Wind Dir Waves Ship Positions

HUAL Seoul

Last reported at 2015-Apr-20 19:28 UTC. Time now 2015-Apr-22 03:53 UTC.
Position N 33°31' E 124°01'.

Type: Cargo ship. MMSI: 257496000.

Date/timePositionNaut miles runAvg speedWind from/ knotsBaromVisibWave heightAir tempDewpointWater temp
2015-Apr-20 19:28N 33°31' E 124°01'61611.9
2015-Apr-18 15:33N 23°56' E 119°51'3816.0
2015-Apr-18 13:09N 23°17' E 119°50'1015.5
2015-Apr-18 12:32N 23°08' E 119°50'1515.2
2015-Apr-18 11:33N 22°53' E 119°50'1413.7
2015-Apr-18 10:34N 22°39' E 119°50'1312.7
2015-Apr-18 09:34N 22°27' E 119°45'1312.5
2015-Apr-18 08:33N 22°16' E 119°39'1413.4
2015-Apr-18 07:31N 22°04' E 119°32'  
2015-Apr-13 11:10N 01°42' E 104°40'812.7
2015-Apr-13 10:33N 01°35' E 104°38'1312.5
2015-Apr-13 09:33N 01°25' E 104°30'1312.6
2015-Apr-13 08:33N 01°17' E 104°20'1211.9
2015-Apr-13 07:33N 01°16' E 104°08'1211.5
2015-Apr-13 06:33N 01°15' E 103°57'3 2.8
2015-Apr-13 05:25N 01°17' E 103°54'0 0.0
2015-Apr-13 04:31N 01°17' E 103°54'0 0.0
2015-Apr-13 03:31N 01°17' E 103°54'0 0.1
2015-Apr-13 02:31N 01°17' E 103°54'0 0.0
2015-Apr-13 01:31N 01°17' E 103°54'0 0.0
2015-Apr-13 00:31N 01°17' E 103°54'0 0.0
2015-Apr-12 23:31N 01°17' E 103°54'0 0.1
2015-Apr-12 22:19N 01°17' E 103°54'0 0.0
2015-Apr-12 21:19N 01°17' E 103°54'0 0.0
2015-Apr-12 20:19N 01°17' E 103°54'0 0.0
2015-Apr-12 19:31N 01°17' E 103°54'0 0.0
2015-Apr-12 18:31N 01°17' E 103°54'0 0.0
2015-Apr-12 16:19N 01°17' E 103°54'0 0.0
2015-Apr-12 15:34N 01°17' E 103°54'1 0.8
2015-Apr-12 14:33N 01°16' E 103°54'7 6.6
2015-Apr-12 13:33N 01°13' E 103°48'5 4.4
2015-Apr-12 12:26N 01°17' E 103°45'0 0.0
2015-Apr-12 11:29N 01°17' E 103°45'0 0.0
2015-Apr-12 10:14N 01°17' E 103°45'0 0.0
2015-Apr-12 09:32N 01°17' E 103°45'0 0.0
2015-Apr-12 08:14N 01°17' E 103°45'0 0.0
2015-Apr-12 07:33N 01°17' E 103°45'2 2.4
2015-Apr-12 06:34N 01°15' E 103°46'10 9.3
2015-Apr-12 05:32N 01°13' E 103°36'67 6.7
2015-Apr-11 19:33N 01°43' E 102°36'1412.1
2015-Apr-11 18:23N 01°49' E 102°23'1512.6
2015-Apr-11 17:10N 01°57' E 102°10'813.0
2015-Apr-11 16:32N 02°03' E 102°04'  

Dump ship's entire track history